Time;durP1;ratioP1;P1;durP2;ratioP2;P2;SDS_P1;SDS_P2;PMS_P1;PMS_P2;Temp;Humidity;BMP_temperature;BMP_pressure;BME280_temperature;BME280_humidity;BME280_pressure;Samples;Min_cycle;Max_cycle;Signal;HPM_P1;HPM_P2
2023/06/08 00:00:05;;;;;;;7.97;4.70;;;;;;;22.80;48.73;102100.56;4999468;28;20498;-33
2023/06/08 00:02:32;;;;;;;8.27;4.60;;;;;;;22.79;48.66;102098.00;5001180;28;20101;-33
2023/06/08 00:05:02;;;;;;;7.72;4.35;;;;;;;22.78;48.95;102090.91;4997187;28;20041;-32
2023/06/08 00:07:30;;;;;;;6.13;3.95;;;;;;;22.77;49.00;102102.72;5000139;28;20050;-33
2023/06/08 00:09:59;;;;;;;9.27;4.85;;;;;;;22.76;48.94;102095.63;4999863;28;20058;-32
2023/06/08 00:12:27;;;;;;;6.60;4.47;;;;;;;22.75;49.25;102092.06;5000059;28;20100;-33
2023/06/08 00:14:54;;;;;;;7.22;3.95;;;;;;;22.75;49.27;102093.91;5005596;28;20092;-33
2023/06/08 00:17:21;;;;;;;7.68;4.03;;;;;;;22.74;49.21;102097.63;5007943;28;20073;-33
2023/06/08 00:19:47;;;;;;;7.15;4.43;;;;;;;22.74;49.06;102097.63;4999461;28;20049;-33
2023/06/08 00:22:14;;;;;;;8.77;4.18;;;;;;;22.72;49.04;102097.78;5009500;28;20088;-32
2023/06/08 00:24:41;;;;;;;7.70;4.25;;;;;;;22.71;49.33;102096.06;5005416;28;20128;-33
2023/06/08 00:27:08;;;;;;;7.78;4.50;;;;;;;22.71;49.09;102095.22;5004223;28;20096;-33
2023/06/08 00:29:35;;;;;;;6.13;4.05;;;;;;;22.69;48.96;102095.41;5004739;28;20062;-33
2023/06/08 00:32:02;;;;;;;6.85;4.40;;;;;;;22.69;49.19;102094.56;5003986;28;20061;-33
2023/06/08 00:34:29;;;;;;;5.78;3.90;;;;;;;22.67;49.05;102079.34;5004092;28;20641;-32
2023/06/08 00:36:56;;;;;;;6.80;4.13;;;;;;;22.67;49.43;102079.34;5003091;28;20058;-32
2023/06/08 00:39:23;;;;;;;6.25;3.90;;;;;;;22.66;49.46;102093.84;5001112;28;20148;-33
2023/06/08 00:41:50;;;;;;;6.90;4.28;;;;;;;22.65;49.15;102084.03;5004349;28;20061;-33
2023/06/08 00:44:16;;;;;;;6.32;4.30;;;;;;;22.65;49.12;102085.91;5001279;28;20394;-33
2023/06/08 00:46:43;;;;;;;6.65;4.10;;;;;;;22.64;49.35;102076.09;5002901;28;20042;-32
2023/06/08 00:49:15;;;;;;;7.63;4.13;;;;;;;22.63;49.23;102091.47;5000925;28;20456;-33
2023/06/08 00:51:43;;;;;;;6.13;3.47;;;;;;;22.63;49.29;102086.06;5005118;28;20046;-33
2023/06/08 00:54:12;;;;;;;4.68;3.08;;;;;;;22.61;49.52;102071.84;5003196;28;20093;-32
2023/06/08 00:56:40;;;;;;;6.05;3.70;;;;;;;22.60;49.28;102080.97;5005470;28;20053;-33
2023/06/08 00:59:09;;;;;;;6.47;4.07;;;;;;;22.60;49.35;102072.84;5003275;28;20046;-33
2023/06/08 01:01:38;;;;;;;6.20;3.65;;;;;;;22.59;49.57;102073.88;5007845;28;20061;-33
2023/06/08 01:04:09;;;;;;;6.55;3.58;;;;;;;22.57;49.25;102065.03;4999164;28;20058;-33
2023/06/08 01:07:00;;;;;;;7.70;3.67;;;;;;;22.57;49.06;102075.00;5009441;28;20358;-33
2023/06/08 01:09:50;;;;;;;6.55;3.70;;;;;;;22.55;49.49;102066.19;5007051;28;20050;-33
2023/06/08 01:12:35;;;;;;;6.68;3.38;;;;;;;22.53;49.30;102066.34;5007066;28;20144;-33
2023/06/08 01:15:09;;;;;;;5.32;3.20;;;;;;;22.53;49.00;102066.34;5005099;28;20073;-34
2023/06/08 01:17:40;;;;;;;9.40;3.45;;;;;;;22.53;49.49;102060.09;5008594;28;20050;-33
2023/06/08 01:20:17;;;;;;;6.57;3.83;;;;;;;22.52;49.25;102061.13;5006644;28;20100;-33
2023/06/08 01:23:10;;;;;;;6.32;3.67;;;;;;;22.49;49.32;102058.72;5002943;28;20116;-33
2023/06/08 01:25:39;;;;;;;6.18;3.92;;;;;;;22.50;49.41;102047.75;5008745;28;20042;-33
2023/06/08 01:28:13;;;;;;;9.30;3.85;;;;;;;22.49;49.28;102048.75;5003130;28;20054;-33
2023/06/08 01:30:45;;;;;;;5.45;3.42;;;;;;;22.48;49.58;102055.16;5004710;28;20058;-34
2023/06/08 01:33:17;;;;;;;6.22;2.97;;;;;;;22.46;49.48;102049.06;5005045;28;20093;-33
2023/06/08 01:36:00;;;;;;;6.90;3.58;;;;;;;22.44;49.43;102051.06;5000070;28;20408;-34
2023/06/08 01:38:49;;;;;;;7.17;3.77;;;;;;;22.45;49.30;102050.06;5004959;28;20342;-33
2023/06/08 01:41:28;;;;;;;5.80;3.33;;;;;;;22.43;49.68;102054.75;5000954;28;20952;-33
2023/06/08 01:43:58;;;;;;;4.72;3.25;;;;;;;22.43;49.44;102054.75;5003274;28;20112;-33
2023/06/08 01:46:27;;;;;;;7.90;3.70;;;;;;;22.42;49.40;102059.31;5005006;28;20053;-33
2023/06/08 01:48:58;;;;;;;5.63;3.63;;;;;;;22.41;49.44;102052.22;5003175;28;20053;-33
2023/06/08 01:51:26;;;;;;;5.25;3.45;;;;;;;22.42;49.56;102050.38;5003211;28;20062;-34
2023/06/08 01:54:04;;;;;;;5.00;2.97;;;;;;;22.39;49.68;102051.53;5003231;28;20046;-34
2023/06/08 01:56:32;;;;;;;6.15;3.50;;;;;;;22.38;49.56;102044.41;5001103;28;20470;-33
2023/06/08 01:58:59;;;;;;;6.72;3.30;;;;;;;22.38;49.40;102048.97;4999974;28;20376;-33
2023/06/08 02:01:26;;;;;;;5.20;3.22;;;;;;;22.39;49.62;102045.25;5004299;28;20062;-33
2023/06/08 02:03:52;;;;;;;6.45;3.10;;;;;;;22.37;49.51;102041.88;5008959;28;20081;-33
2023/06/08 02:06:19;;;;;;;5.30;3.50;;;;;;;22.36;49.72;102043.72;5004297;28;20077;-33
2023/06/08 02:08:46;;;;;;;5.07;3.40;;;;;;;22.36;49.82;102054.53;5005201;28;20057;-34
2023/06/08 02:11:13;;;;;;;8.02;3.50;;;;;;;22.35;49.54;102043.88;5007703;28;20053;-33
2023/06/08 02:13:41;;;;;;;7.35;3.95;;;;;;;22.34;49.81;102052.97;4997969;28;20050;-34
2023/06/08 02:16:08;;;;;;;5.95;3.10;;;;;;;22.33;49.55;102054.84;5010422;28;20049;-33
2023/06/08 02:18:40;;;;;;;6.75;3.20;;;;;;;22.32;49.74;102050.44;5008843;28;20160;-34
2023/06/08 02:21:10;;;;;;;8.68;2.88;;;;;;;22.33;50.01;102051.28;5036700;28;20056;-34
2023/06/08 02:23:38;;;;;;;5.45;3.17;;;;;;;22.31;49.97;102043.34;5008111;28;20093;-33
2023/06/08 02:26:07;;;;;;;5.80;3.10;;;;;;;22.31;49.76;102042.47;5007284;28;20356;-33
2023/06/08 02:28:34;;;;;;;5.32;2.97;;;;;;;22.31;49.71;102053.28;5005729;28;20445;-33
2023/06/08 02:31:03;;;;;;;5.78;3.22;;;;;;;22.29;50.22;102045.34;5006165;28;20053;-33
2023/06/08 02:33:30;;;;;;;4.95;2.85;;;;;;;22.28;50.09;102049.06;5008010;28;20045;-34
2023/06/08 02:35:57;;;;;;;5.30;3.20;;;;;;;22.27;49.79;102036.56;5006056;28;20073;-33
2023/06/08 02:38:25;;;;;;;4.32;2.80;;;;;;;22.26;49.93;102045.63;5005573;28;20057;-33
2023/06/08 02:40:51;;;;;;;4.20;2.80;;;;;;;22.24;49.88;102042.25;5004979;28;20046;-34
2023/06/08 02:43:19;;;;;;;5.68;3.10;;;;;;;22.26;49.93;102039.38;5005994;28;20049;-33
2023/06/08 02:45:46;;;;;;;6.82;3.40;;;;;;;22.23;49.88;102035.16;5006333;28;20116;-33
2023/06/08 02:48:12;;;;;;;8.40;3.65;;;;;;;22.23;49.49;102043.25;5006083;28;20058;-33
2023/06/08 02:50:39;;;;;;;5.22;2.65;;;;;;;22.22;49.60;102035.28;5035045;28;20112;-33
2023/06/08 02:53:06;;;;;;;4.88;3.20;;;;;;;22.22;49.81;102038.84;5007733;28;20449;-33
2023/06/08 02:55:36;;;;;;;4.10;2.90;;;;;;;22.21;50.02;102039.00;5007632;28;20246;-33
2023/06/08 02:58:03;;;;;;;4.43;2.70;;;;;;;22.21;49.99;102036.31;5006814;28;20073;-34
2023/06/08 03:00:30;;;;;;;7.07;3.08;;;;;;;22.18;49.79;102035.59;5008540;28;20046;-33
2023/06/08 03:03:00;;;;;;;7.00;3.33;;;;;;;22.18;49.97;102035.59;5001575;28;20350;-33
2023/06/08 03:05:29;;;;;;;5.47;2.83;;;;;;;22.17;49.86;102031.19;5000370;28;20441;-33
2023/06/08 03:07:58;;;;;;;5.90;3.05;;;;;;;22.16;49.73;102036.75;5004162;28;20076;-33
2023/06/08 03:10:26;;;;;;;5.63;3.08;;;;;;;22.15;49.89;102024.25;5005088;28;20096;-33
2023/06/08 03:12:53;;;;;;;4.82;3.35;;;;;;;22.14;49.72;102026.09;5032231;28;20058;-33
2023/06/08 03:15:22;;;;;;;3.53;2.75;;;;;;;22.13;49.59;102032.50;5001314;28;20049;-34
2023/06/08 03:17:53;;;;;;;4.15;2.92;;;;;;;22.12;49.81;102022.69;5001708;28;20476;-33
2023/06/08 03:20:20;;;;;;;5.57;2.70;;;;;;;22.12;49.63;102021.84;4999728;28;20058;-33
2023/06/08 03:22:46;;;;;;;4.28;2.38;;;;;;;22.12;49.98;102019.13;5004009;28;20108;-33
2023/06/08 03:25:16;;;;;;;4.50;2.78;;;;;;;22.11;49.92;102014.72;5002092;28;20351;-34
2023/06/08 03:27:43;;;;;;;6.53;3.45;;;;;;;22.11;49.97;102029.09;5001871;28;20418;-33
2023/06/08 03:30:10;;;;;;;6.72;3.15;;;;;;;22.11;50.00;102020.13;5000047;28;20301;-33
2023/06/08 03:32:41;;;;;;;4.68;2.67;;;;;;;22.09;50.16;102025.69;5005368;28;20063;-34
2023/06/08 03:35:09;;;;;;;4.03;2.65;;;;;;;22.09;49.96;102027.53;5001251;28;20046;-33
2023/06/08 03:37:35;;;;;;;5.05;3.13;;;;;;;22.09;50.42;102028.38;5003448;28;20082;-33
2023/06/08 03:40:03;;;;;;;4.50;2.72;;;;;;;22.09;49.99;102035.63;4999741;28;20073;-33
2023/06/08 03:42:30;;;;;;;6.55;3.15;;;;;;;22.09;50.09;102033.78;5000504;28;20042;-33
2023/06/08 03:44:56;;;;;;;5.45;2.78;;;;;;;22.09;50.20;102043.72;5003774;28;20100;-33
2023/06/08 03:47:25;;;;;;;5.28;2.75;;;;;;;22.09;50.19;102038.34;5000150;28;21523;-34
2023/06/08 03:49:52;;;;;;;6.32;2.65;;;;;;;22.08;50.25;102040.19;4998105;28;20050;-33
2023/06/08 03:52:19;;;;;;;4.60;2.28;;;;;;;22.07;50.23;102038.50;4997739;28;20085;-33
2023/06/08 03:54:45;;;;;;;5.00;2.60;;;;;;;22.08;50.19;102034.78;5032652;28;20101;-33
2023/06/08 03:57:12;;;;;;;4.20;2.70;;;;;;;22.08;50.26;102044.75;4997309;28;20442;-34
2023/06/08 03:59:39;;;;;;;23.85;5.97;;;;;;;22.07;50.26;102037.63;5000622;28;20053;-33
2023/06/08 04:02:06;;;;;;;44.20;8.50;;;;;;;22.07;49.81;102041.19;5000802;28;20371;-34
2023/06/08 04:04:34;;;;;;;32.05;8.30;;;;;;;22.07;50.25;102035.78;5000346;28;20518;-33
2023/06/08 04:07:01;;;;;;;35.08;8.85;;;;;;;22.07;50.38;102035.78;4997264;28;20148;-33
2023/06/08 04:09:28;;;;;;;25.42;8.60;;;;;;;22.07;50.06;102035.78;4998118;28;20085;-33
2023/06/08 04:11:56;;;;;;;27.60;9.70;;;;;;;22.07;50.12;102035.78;5005849;28;20054;-33
2023/06/08 04:14:23;;;;;;;28.50;8.90;;;;;;;22.07;50.00;102032.22;4994297;28;20185;-33
2023/06/08 04:16:50;;;;;;;25.58;10.05;;;;;;;22.07;49.87;102030.41;5000702;28;20069;-34
2023/06/08 04:19:16;;;;;;;29.90;9.38;;;;;;;22.06;50.24;102028.66;4997445;28;20495;-33
2023/06/08 04:21:43;;;;;;;27.13;9.27;;;;;;;22.05;50.16;102021.59;4997371;28;20058;-33
2023/06/08 04:24:16;;;;;;;37.58;10.70;;;;;;;22.05;50.00;102026.97;5007248;28;20057;-33
2023/06/08 04:26:43;;;;;;;32.20;10.55;;;;;;;22.05;50.14;102018.88;5002638;28;20216;-33
2023/06/08 04:29:11;;;;;;;24.85;10.85;;;;;;;22.05;49.97;102032.38;4999944;28;20503;-33
2023/06/08 04:31:38;;;;;;;29.15;10.70;;;;;;;22.05;49.93;102031.53;5000793;28;20049;-33
2023/06/08 04:34:04;;;;;;;27.38;9.82;;;;;;;22.05;49.88;102023.44;5000858;28;20049;-35
2023/06/08 04:36:31;;;;;;;25.40;11.70;;;;;;;22.05;49.79;102026.97;5006359;28;20074;-33
2023/06/08 04:38:58;;;;;;;30.75;11.85;;;;;;;22.05;50.00;102026.97;5005979;28;20108;-32
2023/06/08 04:41:29;;;;;;;20.70;10.48;;;;;;;22.06;50.02;102034.06;5002308;28;20129;-32
2023/06/08 04:44:01;;;;;;;26.38;10.45;;;;;;;22.06;49.86;102034.06;5005664;28;20162;-32
2023/06/08 04:46:33;;;;;;;28.42;11.35;;;;;;;22.06;49.97;102034.06;5001977;28;20061;-32
2023/06/08 04:49:00;;;;;;;24.38;10.55;;;;;;;22.05;49.83;102026.97;5001567;28;20070;-32
2023/06/08 04:51:29;;;;;;;25.02;12.48;;;;;;;22.05;50.04;102032.38;5006280;28;20054;-32
2023/06/08 04:53:57;;;;;;;25.08;10.95;;;;;;;22.05;49.98;102029.69;5006133;28;20050;-32
2023/06/08 04:56:24;;;;;;;29.17;12.68;;;;;;;22.06;49.86;102030.53;5000996;28;20121;-32
2023/06/08 04:58:50;;;;;;;23.30;11.68;;;;;;;22.06;49.71;102028.66;5003709;28;20061;-32
2023/06/08 05:01:17;;;;;;;21.20;12.48;;;;;;;22.05;49.72;102032.38;5002665;28;20069;-32
2023/06/08 05:03:46;;;;;;;24.25;11.60;;;;;;;22.06;49.88;102027.84;5001737;28;20054;-31
2023/06/08 05:06:13;;;;;;;25.55;12.88;;;;;;;22.05;49.68;102032.38;4998149;28;20395;-31
2023/06/08 05:08:40;;;;;;;23.45;12.23;;;;;;;22.06;49.66;102027.84;5003871;28;20057;-31
2023/06/08 05:11:07;;;;;;;24.30;12.90;;;;;;;22.06;49.43;102028.66;5000294;28;20354;-31
2023/06/08 05:13:34;;;;;;;23.58;12.68;;;;;;;22.06;49.44;102025.97;4997820;28;20124;-32
2023/06/08 05:16:01;;;;;;;21.67;12.30;;;;;;;22.07;49.78;102013.31;5000298;28;20451;-32
2023/06/08 05:18:28;;;;;;;24.25;12.10;;;;;;;22.07;49.56;102007.91;4992107;28;20042;-31
2023/06/08 05:20:55;;;;;;;25.70;13.15;;;;;;;22.06;49.45;102007.06;4995984;28;20051;-31
2023/06/08 05:23:22;;;;;;;24.02;11.38;;;;;;;22.07;49.69;102008.78;4999152;28;20643;-32
2023/06/08 05:25:48;;;;;;;22.13;11.90;;;;;;;22.07;49.40;102010.63;4999728;28;20639;-32
2023/06/08 05:28:15;;;;;;;24.08;12.07;;;;;;;22.07;49.58;102006.09;4995461;28;20403;-33
2023/06/08 05:30:42;;;;;;;20.90;11.85;;;;;;;22.07;49.38;102007.91;4999769;28;20053;-32
2023/06/08 05:33:08;;;;;;;22.95;12.00;;;;;;;22.06;49.22;102009.78;4997758;28;20072;-32
2023/06/08 05:35:35;;;;;;;25.25;12.85;;;;;;;22.07;49.52;102011.50;5000924;28;20121;-32
2023/06/08 05:38:02;;;;;;;21.25;11.98;;;;;;;22.07;49.33;102011.50;4998769;28;20058;-32
2023/06/08 05:40:29;;;;;;;20.88;12.23;;;;;;;22.08;49.41;102001.53;5001968;28;20072;-32
2023/06/08 05:42:55;;;;;;;22.60;12.95;;;;;;;22.08;49.37;102007.78;4998529;28;20046;-32
2023/06/08 05:45:22;;;;;;;28.98;12.25;;;;;;;22.08;49.31;101999.69;5002090;28;20046;-32
2023/06/08 05:47:49;;;;;;;18.70;11.18;;;;;;;22.09;49.23;102004.06;5002102;28;20061;-32
2023/06/08 05:50:16;;;;;;;22.27;11.57;;;;;;;22.10;49.48;101996.81;5002380;28;20061;-32
2023/06/08 05:52:42;;;;;;;22.60;12.32;;;;;;;22.09;49.45;102001.38;5002272;28;20046;-32
2023/06/08 05:55:10;;;;;;;24.35;12.00;;;;;;;22.10;49.14;102003.06;5000696;28;20088;-32
2023/06/08 05:57:39;;;;;;;22.02;11.23;;;;;;;22.12;49.31;102005.63;5002989;28;20061;-32
2023/06/08 06:00:12;;;;;;;20.13;10.60;;;;;;;22.11;49.32;101996.69;5006448;28;20065;-32
2023/06/08 06:02:40;;;;;;;17.73;11.40;;;;;;;22.12;49.32;102000.22;5001887;28;20050;-33
2023/06/08 06:05:08;;;;;;;21.42;11.82;;;;;;;22.13;49.02;101996.56;4999547;28;20093;-32
2023/06/08 06:07:36;;;;;;;21.60;11.73;;;;;;;22.14;49.18;101999.09;5000444;28;20054;-32
2023/06/08 06:10:04;;;;;;;20.42;11.70;;;;;;;22.13;49.38;101997.41;4996215;28;20078;-32
2023/06/08 06:12:31;;;;;;;20.38;11.50;;;;;;;22.15;49.08;101994.53;5009406;28;20049;-32
2023/06/08 06:14:58;;;;;;;20.33;12.07;;;;;;;22.15;49.24;102000.81;5004875;28;20081;-32
2023/06/08 06:17:25;;;;;;;19.35;10.68;;;;;;;22.16;49.27;101999.81;5000481;28;20101;-33
2023/06/08 06:19:52;;;;;;;17.98;10.63;;;;;;;22.17;49.16;101997.94;5009271;28;20058;-33
2023/06/08 06:22:19;;;;;;;20.15;11.23;;;;;;;22.17;48.98;101996.09;5012273;28;20045;-32
2023/06/08 06:24:45;;;;;;;18.83;10.73;;;;;;;22.18;48.75;101996.94;5006501;28;20108;-33
2023/06/08 06:27:12;;;;;;;19.38;11.07;;;;;;;22.21;48.92;101999.34;5007170;28;20046;-32
2023/06/08 06:29:39;;;;;;;18.35;10.18;;;;;;;22.21;48.92;101993.94;5008171;28;20089;-32
2023/06/08 06:32:06;;;;;;;16.73;10.07;;;;;;;22.22;48.98;101997.47;5009052;28;20096;-33
2023/06/08 06:34:33;;;;;;;16.33;10.02;;;;;;;22.24;48.79;102001.75;5002755;28;20075;-34
2023/06/08 06:37:00;;;;;;;15.90;9.75;;;;;;;22.25;48.77;102000.72;5001853;28;20315;-33
2023/06/08 06:39:28;;;;;;;15.63;10.07;;;;;;;22.25;48.87;102000.72;5004175;28;20064;-33
2023/06/08 06:41:55;;;;;;;17.08;10.68;;;;;;;22.28;48.74;102002.28;5002706;28;20131;-32
2023/06/08 06:44:21;;;;;;;19.95;10.43;;;;;;;22.29;48.76;102003.97;5003973;28;20144;-33
2023/06/08 06:46:48;;;;;;;23.27;10.55;;;;;;;22.31;48.47;101999.25;4997123;28;20050;-33
2023/06/08 06:49:15;;;;;;;26.05;10.70;;;;;;;22.33;48.74;102003.50;4994884;28;20451;-32
2023/06/08 06:51:42;;;;;;;24.85;10.68;;;;;;;22.34;48.88;102004.34;4999675;28;20073;-32
2023/06/08 06:54:08;;;;;;;19.60;10.20;;;;;;;22.34;48.40;102010.59;5000578;28;20054;-32
2023/06/08 06:56:35;;;;;;;26.55;11.10;;;;;;;22.34;48.52;102021.41;4996892;28;20045;-32
2023/06/08 06:59:02;;;;;;;38.13;10.25;;;;;;;22.35;48.39;102027.66;4998039;28;20050;-33
2023/06/08 07:01:31;;;;;;;23.05;11.57;;;;;;;22.35;48.55;102011.44;4998758;28;20084;-32
2023/06/08 07:03:57;;;;;;;26.27;11.38;;;;;;;22.34;48.54;102004.34;4995363;28;20050;-33
2023/06/08 07:06:25;;;;;;;22.38;9.88;;;;;;;22.34;48.06;102005.19;4998287;28;20113;-34
2023/06/08 07:08:52;;;;;;;28.55;11.02;;;;;;;22.34;48.32;102004.34;5003201;28;20057;-33
2023/06/08 07:11:19;;;;;;;23.77;11.48;;;;;;;22.35;48.21;102006.94;5001503;28;20218;-32
2023/06/08 07:13:45;;;;;;;26.40;11.10;;;;;;;22.35;48.51;102006.03;5004106;28;20334;-34
2023/06/08 07:16:12;;;;;;;25.92;11.15;;;;;;;22.36;48.50;102002.38;4997320;28;20142;-32
2023/06/08 07:18:39;;;;;;;25.38;10.77;;;;;;;22.35;48.44;102004.22;4996468;28;20092;-33
2023/06/08 07:21:06;;;;;;;30.88;11.13;;;;;;;22.36;48.52;102008.63;5002644;28;20062;-33
2023/06/08 07:23:33;;;;;;;26.73;11.38;;;;;;;22.37;48.69;102001.34;4994860;28;20488;-33
2023/06/08 07:26:20;;;;;;;20.60;10.00;;;;;;;22.38;48.54;102000.34;5001042;28;20049;-33
2023/06/08 07:28:57;;;;;;;25.10;10.90;;;;;;;22.38;48.41;101990.38;4995143;28;20054;-32
2023/06/08 07:31:24;;;;;;;29.65;11.25;;;;;;;22.40;48.46;101995.66;5000625;28;20096;-33
2023/06/08 07:33:51;;;;;;;22.48;9.50;;;;;;;22.41;48.43;102002.75;4999778;28;20058;-33
2023/06/08 07:36:18;;;;;;;24.55;10.63;;;;;;;22.41;48.27;101998.19;5001285;28;20046;-33
2023/06/08 07:38:44;;;;;;;18.38;10.20;;;;;;;22.42;48.18;102007.97;5004552;28;20081;-32
2023/06/08 07:41:11;;;;;;;24.10;10.05;;;;;;;22.44;48.03;101997.03;5001794;28;20141;-33
2023/06/08 07:43:39;;;;;;;21.00;9.73;;;;;;;22.45;48.33;102000.59;5005150;28;20041;-33
2023/06/08 07:46:06;;;;;;;22.90;11.32;;;;;;;22.47;48.42;102001.25;5006142;28;20045;-33
2023/06/08 07:48:33;;;;;;;24.42;10.70;;;;;;;22.47;48.11;101999.41;5006232;28;20084;-33
2023/06/08 07:51:00;;;;;;;22.52;9.27;;;;;;;22.49;48.15;102005.53;5033652;28;20737;-33
2023/06/08 07:53:36;;;;;;;23.83;9.98;;;;;;;22.49;47.97;102008.22;5007255;28;20073;-32
2023/06/08 07:56:03;;;;;;;19.40;9.77;;;;;;;22.51;48.30;102005.34;5003433;28;20073;-33
2023/06/08 07:58:31;;;;;;;18.38;9.10;;;;;;;22.54;48.04;102011.31;4999137;28;20050;-33
2023/06/08 08:00:58;;;;;;;18.60;9.23;;;;;;;22.55;48.06;102004.03;5005517;28;20057;-33
2023/06/08 08:03:25;;;;;;;19.35;9.80;;;;;;;22.57;48.04;102011.00;5003030;28;20054;-33
2023/06/08 08:05:52;;;;;;;17.85;8.75;;;;;;;22.58;48.10;102001.88;5001072;28;20401;-32
2023/06/08 08:08:19;;;;;;;17.77;8.57;;;;;;;22.60;47.91;102004.44;5008581;28;20197;-33
2023/06/08 08:10:47;;;;;;;21.90;8.80;;;;;;;22.61;47.60;101996.16;4995046;28;20054;-33
2023/06/08 08:13:13;;;;;;;23.90;9.40;;;;;;;22.61;47.68;101988.06;5002294;28;20057;-33
2023/06/08 08:15:40;;;;;;;19.63;8.73;;;;;;;22.63;47.60;101988.78;5007765;28;20050;-33
2023/06/08 08:18:07;;;;;;;21.63;8.95;;;;;;;22.63;47.50;101991.47;5006383;28;20061;-33
2023/06/08 08:20:33;;;;;;;18.23;8.80;;;;;;;22.65;47.82;101986.75;5005587;28;20144;-33
2023/06/08 08:23:00;;;;;;;19.85;8.90;;;;;;;22.65;47.60;101986.75;5001208;28;20092;-33
2023/06/08 08:25:27;;;;;;;17.90;8.32;;;;;;;22.67;47.57;101989.28;5001945;28;20170;-33
2023/06/08 08:27:53;;;;;;;23.60;9.13;;;;;;;22.66;47.41;101987.59;5004175;28;20088;-33
2023/06/08 08:30:20;;;;;;;19.10;8.63;;;;;;;22.66;47.69;101985.72;5006547;28;20566;-33
2023/06/08 08:32:46;;;;;;;15.80;7.50;;;;;;;22.67;47.43;101983.88;5001782;28;20058;-33
2023/06/08 08:35:14;;;;;;;15.95;8.07;;;;;;;22.68;47.34;101985.59;4998243;28;20346;-33
2023/06/08 08:37:42;;;;;;;16.52;8.02;;;;;;;22.68;47.49;101982.91;4996325;28;20434;-33
2023/06/08 08:40:09;;;;;;;18.13;7.80;;;;;;;22.69;47.40;101990.00;4999507;28;20050;-33
2023/06/08 08:42:48;;;;;;;15.57;7.20;;;;;;;22.70;47.25;101990.84;5000455;28;20046;-33
2023/06/08 08:45:16;;;;;;;14.48;7.22;;;;;;;22.70;47.57;101980.03;5000899;28;20132;-34
2023/06/08 08:47:43;;;;;;;13.02;6.97;;;;;;;22.71;47.35;101984.41;5005464;28;20050;-33
2023/06/08 08:50:16;;;;;;;13.35;7.30;;;;;;;22.72;47.25;101984.28;5005169;28;20050;-33
2023/06/08 08:52:48;;;;;;;13.15;7.30;;;;;;;22.73;47.16;101983.25;4998533;28;20145;-33
2023/06/08 08:55:16;;;;;;;11.38;7.18;;;;;;;22.75;47.58;101986.63;4997600;28;20382;-35
2023/06/08 08:58:01;;;;;;;12.68;6.97;;;;;;;22.74;47.26;101979.53;5004532;28;20069;-33
2023/06/08 09:00:31;;;;;;;13.02;6.70;;;;;;;22.76;47.13;101988.38;5004404;28;20057;-34
2023/06/08 09:02:58;;;;;;;13.45;6.53;;;;;;;22.77;47.38;101990.06;5006213;28;20054;-33
2023/06/08 09:05:25;;;;;;;11.27;6.30;;;;;;;22.79;46.99;101981.78;5004757;28;20058;-34
2023/06/08 09:07:55;;;;;;;9.88;6.10;;;;;;;22.78;47.30;101990.91;5000131;28;20058;-33
2023/06/08 09:10:25;;;;;;;12.38;6.05;;;;;;;22.79;46.93;101982.63;5002247;28;20078;-34
2023/06/08 09:12:54;;;;;;;9.85;5.72;;;;;;;22.81;47.38;101994.13;5005819;28;20057;-34
2023/06/08 09:15:31;;;;;;;9.88;5.50;;;;;;;22.82;47.27;101982.31;5002190;28;20049;-33
2023/06/08 09:18:03;;;;;;;12.15;5.38;;;;;;;22.85;47.22;101981.16;5004432;28;20054;-34
2023/06/08 09:20:33;;;;;;;9.40;5.20;;;;;;;22.87;46.75;101985.41;5004785;28;20436;-33
2023/06/08 09:23:24;;;;;;;8.85;4.97;;;;;;;22.88;47.36;101984.41;5004418;28;20592;-33
2023/06/08 09:25:53;;;;;;;10.30;5.30;;;;;;;22.92;46.75;101981.41;5003072;28;20085;-34
2023/06/08 09:28:24;;;;;;;9.35;5.32;;;;;;;22.94;46.90;101980.22;4999739;28;20076;-33
2023/06/08 09:30:52;;;;;;;9.00;4.93;;;;;;;22.96;46.81;101988.19;5002441;28;20366;-33
2023/06/08 09:33:24;;;;;;;9.60;5.57;;;;;;;22.98;46.72;101970.78;5002568;28;20112;-33
2023/06/08 09:35:57;;;;;;;8.30;5.00;;;;;;;22.99;46.93;101979.75;4999979;28;20057;-32
2023/06/08 09:38:26;;;;;;;10.90;5.00;;;;;;;23.02;46.96;101968.63;5004344;28;20041;-33
2023/06/08 09:41:16;;;;;;;9.07;5.22;;;;;;;23.04;46.75;101974.75;4999568;28;20442;-33
2023/06/08 09:43:45;;;;;;;9.45;5.30;;;;;;;23.06;47.11;101967.28;5001871;28;20053;-33
2023/06/08 09:46:16;;;;;;;8.30;4.85;;;;;;;23.08;46.70;101974.25;5001968;28;20125;-33
2023/06/08 09:48:53;;;;;;;8.88;5.18;;;;;;;23.10;46.52;101971.38;5001928;28;20104;-33
2023/06/08 09:51:23;;;;;;;8.60;4.47;;;;;;;23.13;46.94;101968.38;5000501;28;20484;-33
2023/06/08 09:53:58;;;;;;;10.68;5.25;;;;;;;23.14;46.80;101964.63;5003118;28;20050;-33
2023/06/08 09:56:26;;;;;;;10.70;5.60;;;;;;;23.15;46.91;101961.75;4999424;28;20046;-33
2023/06/08 09:58:56;;;;;;;9.73;4.57;;;;;;;23.17;47.10;101958.06;5002481;28;20060;-32
2023/06/08 10:01:57;;;;;;;9.77;4.95;;;;;;;23.19;46.86;101961.44;4997621;28;20180;-32
2023/06/08 10:04:36;;;;;;;10.05;4.68;;;;;;;23.22;46.60;101961.97;5004933;28;20081;-33
2023/06/08 10:07:09;;;;;;;8.00;4.75;;;;;;;23.23;46.78;101960.13;5003706;28;20137;-33
2023/06/08 10:09:41;;;;;;;7.75;4.82;;;;;;;23.25;46.45;101953.56;5002670;28;20158;-33
2023/06/08 10:12:09;;;;;;;8.15;4.68;;;;;;;23.27;47.12;101956.09;5002389;28;20399;-33
2023/06/08 10:14:36;;;;;;;9.60;5.30;;;;;;;23.29;46.59;101956.78;5005620;28;20058;-33
2023/06/08 10:17:04;;;;;;;7.22;4.68;;;;;;;23.29;46.79;101952.22;5004817;28;20097;-34
2023/06/08 10:19:36;;;;;;;9.93;5.28;;;;;;;23.31;47.03;101949.34;5002488;28;20053;-32
2023/06/08 10:22:03;;;;;;;7.45;4.72;;;;;;;23.33;46.58;101947.34;5009214;28;20088;-32
2023/06/08 10:24:31;;;;;;;8.15;4.60;;;;;;;23.34;46.72;101949.03;5007485;28;20133;-33
2023/06/08 10:27:33;;;;;;;7.70;4.40;;;;;;;23.35;46.40;101951.56;5007958;28;20125;-32
2023/06/08 10:30:01;;;;;;;9.23;4.18;;;;;;;23.37;46.29;101948.72;5001575;28;20058;-33
2023/06/08 10:32:32;;;;;;;8.55;4.60;;;;;;;23.38;46.46;101959.34;5007441;28;20129;-34
2023/06/08 10:35:04;;;;;;;10.13;4.38;;;;;;;23.39;46.52;101947.50;5011424;28;20156;-31
2023/06/08 10:37:32;;;;;;;8.75;4.50;;;;;;;23.41;46.81;101952.78;5008326;28;20081;-32
2023/06/08 10:40:06;;;;;;;7.35;4.20;;;;;;;23.42;46.35;101946.34;5008726;28;20277;-35
2023/06/08 10:42:32;;;;;;;10.77;4.82;;;;;;;23.43;46.67;101937.22;5008544;28;20053;-32
2023/06/08 10:45:03;;;;;;;8.50;4.03;;;;;;;23.45;46.38;101934.38;5003094;28;20049;-32
2023/06/08 10:47:35;;;;;;;8.13;4.20;;;;;;;23.46;46.65;101928.78;5004497;28;20438;-33
2023/06/08 10:50:08;;;;;;;6.85;4.38;;;;;;;23.48;46.87;101936.72;4999647;28;20463;-33
2023/06/08 10:52:42;;;;;;;10.82;4.68;;;;;;;23.49;46.66;101930.31;5003521;28;20415;-33
2023/06/08 10:55:13;;;;;;;7.13;3.95;;;;;;;23.52;46.55;101925.44;5003873;28;20430;-33
2023/06/08 10:57:45;;;;;;;5.75;3.95;;;;;;;23.53;46.75;101926.28;5004122;28;20046;-33
2023/06/08 11:00:22;;;;;;;7.93;4.00;;;;;;;23.54;46.55;101922.56;4999903;28;20049;-33
2023/06/08 11:02:49;;;;;;;7.82;4.07;;;;;;;23.55;46.80;101925.09;4999161;28;20422;-32
2023/06/08 11:05:17;;;;;;;7.13;3.97;;;;;;;23.56;46.44;101920.53;4998697;28;20061;-32
2023/06/08 11:07:44;;;;;;;8.15;4.10;;;;;;;23.58;46.53;101916.66;5000768;28;20046;-33
2023/06/08 11:10:11;;;;;;;8.13;4.25;;;;;;;23.59;46.73;101915.63;5001203;28;20053;-32
2023/06/08 11:12:38;;;;;;;6.47;3.78;;;;;;;23.60;46.20;101916.50;5005555;28;20532;-33
2023/06/08 11:15:05;;;;;;;6.85;3.70;;;;;;;23.60;46.59;101911.09;4998403;28;20334;-33
2023/06/08 11:17:42;;;;;;;7.28;3.97;;;;;;;23.62;46.81;101909.88;5001402;28;20133;-32
2023/06/08 11:20:10;;;;;;;7.22;3.70;;;;;;;23.64;46.05;101907.03;4999853;28;20046;-32
2023/06/08 11:22:40;;;;;;;6.85;3.97;;;;;;;23.66;46.30;101904.19;5005659;28;20105;-32
2023/06/08 11:25:07;;;;;;;7.93;3.72;;;;;;;23.67;46.49;101901.31;5004552;28;20053;-33
2023/06/08 11:27:43;;;;;;;7.10;4.18;;;;;;;23.68;46.65;101900.31;5000456;28;20486;-33